sensor_id;sensor_type;location;lat;lon;timestamp;pressure;altitude;pressure_sealevel;temperature;humidity
46007;BME280;31738;50.188;8.524;2023-04-01T00:00:33;97093.88;;;11.63;83.15
46007;BME280;31738;50.188;8.524;2023-04-01T00:02:59;97093.06;;;11.62;83.03
46007;BME280;31738;50.188;8.524;2023-04-01T00:05:25;97092.22;;;11.62;82.99
46007;BME280;31738;50.188;8.524;2023-04-01T00:07:51;97098.44;;;11.62;82.75
46007;BME280;31738;50.188;8.524;2023-04-01T00:10:17;97093.06;;;11.62;82.85
46007;BME280;31738;50.188;8.524;2023-04-01T00:12:43;97087.69;;;11.62;82.81
46007;BME280;31738;50.188;8.524;2023-04-01T00:15:10;97103.81;;;11.62;82.81
46007;BME280;31738;50.188;8.524;2023-04-01T00:17:37;97095.25;;;11.60;82.27
46007;BME280;31738;50.188;8.524;2023-04-01T00:20:04;97097.59;;;11.62;82.43
46007;BME280;31738;50.188;8.524;2023-04-01T00:22:29;97096.84;;;11.61;82.51
46007;BME280;31738;50.188;8.524;2023-04-01T00:24:55;97105.22;;;11.60;82.25
46007;BME280;31738;50.188;8.524;2023-04-01T00:27:20;97098.25;;;11.59;82.40
46007;BME280;31738;50.188;8.524;2023-04-01T00:29:46;97108.22;;;11.58;82.43
46007;BME280;31738;50.188;8.524;2023-04-01T00:32:13;97108.22;;;11.58;82.57
46007;BME280;31738;50.188;8.524;2023-04-01T00:34:40;97102.06;;;11.58;82.74
46007;BME280;31738;50.188;8.524;2023-04-01T00:37:06;97107.41;;;11.58;82.47
46007;BME280;31738;50.188;8.524;2023-04-01T00:39:33;97102.38;;;11.56;82.58
46007;BME280;31738;50.188;8.524;2023-04-01T00:42:11;97112.00;;;11.57;82.46
46007;BME280;31738;50.188;8.524;2023-04-01T00:44:38;97103.47;;;11.55;82.55
46007;BME280;31738;50.188;8.524;2023-04-01T00:47:04;97100.81;;;11.55;82.42
46007;BME280;31738;50.188;8.524;2023-04-01T00:49:34;97104.25;;;11.56;82.48
46007;BME280;31738;50.188;8.524;2023-04-01T00:52:04;97101.88;;;11.54;82.65
46007;BME280;31738;50.188;8.524;2023-04-01T00:54:31;97100.31;;;11.53;82.38
46007;BME280;31738;50.188;8.524;2023-04-01T00:57:08;97089.59;;;11.53;82.68
46007;BME280;31738;50.188;8.524;2023-04-01T00:59:54;97100.31;;;11.53;82.17
46007;BME280;31738;50.188;8.524;2023-04-01T01:02:20;97100.47;;;11.48;82.03
46007;BME280;31738;50.188;8.524;2023-04-01T01:04:46;97103.66;;;11.50;82.50
46007;BME280;31738;50.188;8.524;2023-04-01T01:07:35;97097.16;;;11.51;81.92
46007;BME280;31738;50.188;8.524;2023-04-01T01:10:12;97094.66;;;11.46;82.19
46007;BME280;31738;50.188;8.524;2023-04-01T01:18:19;97096.72;;;11.49;81.76
46007;BME280;31738;50.188;8.524;2023-04-01T01:23:59;97097.78;;;11.48;81.64
46007;BME280;31738;50.188;8.524;2023-04-01T01:27:01;97095.31;;;11.43;81.78
46007;BME280;31738;50.188;8.524;2023-04-01T01:35:20;97091.22;;;11.37;81.66
46007;BME280;31738;50.188;8.524;2023-04-01T01:37:51;97089.59;;;11.36;81.80
46007;BME280;31738;50.188;8.524;2023-04-01T01:40:19;97097.34;;;11.38;81.83
46007;BME280;31738;50.188;8.524;2023-04-01T01:42:51;97090.56;;;11.40;81.99
46007;BME280;31738;50.188;8.524;2023-04-01T01:45:20;97091.34;;;11.41;81.86
46007;BME280;31738;50.188;8.524;2023-04-01T01:47:47;97090.56;;;11.40;81.49
46007;BME280;31738;50.188;8.524;2023-04-01T01:50:14;97097.50;;;11.41;81.52
46007;BME280;31738;50.188;8.524;2023-04-01T01:52:40;97094.50;;;11.43;81.36
46007;BME280;31738;50.188;8.524;2023-04-01T01:55:30;97100.03;;;11.46;81.14
46007;BME280;31738;50.188;8.524;2023-04-01T01:58:14;97092.13;;;11.41;81.24
46007;BME280;31738;50.188;8.524;2023-04-01T02:00:44;97088.97;;;11.39;81.34
46007;BME280;31738;50.188;8.524;2023-04-01T02:03:13;97097.03;;;11.39;81.47
46007;BME280;31738;50.188;8.524;2023-04-01T02:05:40;97096.72;;;11.41;81.51
46007;BME280;31738;50.188;8.524;2023-04-01T02:08:13;97091.81;;;11.43;81.24
46007;BME280;31738;50.188;8.524;2023-04-01T02:10:45;97093.56;;;11.39;81.40
46007;BME280;31738;50.188;8.524;2023-04-01T02:13:22;97097.81;;;11.40;81.07
46007;BME280;31738;50.188;8.524;2023-04-01T02:15:52;97100.34;;;11.36;81.33
46007;BME280;31738;50.188;8.524;2023-04-01T02:18:22;97089.59;;;11.36;81.56
46007;BME280;31738;50.188;8.524;2023-04-01T02:20:48;97088.03;;;11.35;81.69
46007;BME280;31738;50.188;8.524;2023-04-01T02:23:15;97091.81;;;11.34;81.77
46007;BME280;31738;50.188;8.524;2023-04-01T02:25:41;97083.00;;;11.34;81.69
46007;BME280;31738;50.188;8.524;2023-04-01T02:28:09;97083.31;;;11.32;81.89
46007;BME280;31738;50.188;8.524;2023-04-01T02:30:36;97081.72;;;11.31;81.63
46007;BME280;31738;50.188;8.524;2023-04-01T02:33:06;97089.31;;;11.29;81.84
46007;BME280;31738;50.188;8.524;2023-04-01T02:35:34;97076.34;;;11.31;81.96
46007;BME280;31738;50.188;8.524;2023-04-01T02:38:01;97083.94;;;11.29;82.08
46007;BME280;31738;50.188;8.524;2023-04-01T02:40:27;97079.22;;;11.26;82.19
46007;BME280;31738;50.188;8.524;2023-04-01T02:42:58;97080.78;;;11.27;82.21
46007;BME280;31738;50.188;8.524;2023-04-01T02:45:23;97079.84;;;11.23;82.51
46007;BME280;31738;50.188;8.524;2023-04-01T02:47:49;97079.84;;;11.23;82.72
46007;BME280;31738;50.188;8.524;2023-04-01T02:50:15;97061.72;;;11.20;82.85
46007;BME280;31738;50.188;8.524;2023-04-01T02:52:40;97063.09;;;11.18;82.88
46007;BME280;31738;50.188;8.524;2023-04-01T02:55:06;97068.78;;;11.16;83.29
46007;BME280;31738;50.188;8.524;2023-04-01T02:57:32;97059.19;;;11.15;83.32
46007;BME280;31738;50.188;8.524;2023-04-01T02:59:57;97069.44;;;11.13;82.92
46007;BME280;31738;50.188;8.524;2023-04-01T03:02:23;97070.22;;;11.14;83.23
46007;BME280;31738;50.188;8.524;2023-04-01T03:04:48;97065.19;;;11.12;83.29
46007;BME280;31738;50.188;8.524;2023-04-01T03:07:14;97072.91;;;11.14;83.01
46007;BME280;31738;50.188;8.524;2023-04-01T03:09:39;97067.22;;;11.15;83.02
46007;BME280;31738;50.188;8.524;2023-04-01T03:12:05;97066.44;;;11.15;82.90
46007;BME280;31738;50.188;8.524;2023-04-01T03:14:37;97073.72;;;11.14;82.85
46007;BME280;31738;50.188;8.524;2023-04-01T03:17:02;97070.22;;;11.14;83.16
46007;BME280;31738;50.188;8.524;2023-04-01T03:19:28;97075.91;;;11.12;83.17
46007;BME280;31738;50.188;8.524;2023-04-01T03:21:53;97073.88;;;11.09;83.83
46007;BME280;31738;50.188;8.524;2023-04-01T03:24:20;97073.88;;;11.09;83.63
46007;BME280;31738;50.188;8.524;2023-04-01T03:26:46;97071.81;;;11.06;83.66
46007;BME280;31738;50.188;8.524;2023-04-01T03:29:12;97071.34;;;11.04;84.14
46007;BME280;31738;50.188;8.524;2023-04-01T03:31:37;97070.53;;;11.04;83.95
46007;BME280;31738;50.188;8.524;2023-04-01T03:34:03;97074.34;;;11.03;84.24
46007;BME280;31738;50.188;8.524;2023-04-01T03:36:28;97063.91;;;11.01;84.40
46007;BME280;31738;50.188;8.524;2023-04-01T03:38:54;97065.03;;;11.00;84.32
46007;BME280;31738;50.188;8.524;2023-04-01T03:41:30;97064.56;;;10.98;84.71
46007;BME280;31738;50.188;8.524;2023-04-01T03:43:56;97067.25;;;10.98;84.72
46007;BME280;31738;50.188;8.524;2023-04-01T03:46:22;97055.72;;;10.98;84.99
46007;BME280;31738;50.188;8.524;2023-04-01T03:48:48;97061.06;;;10.98;84.94
46007;BME280;31738;50.188;8.524;2023-04-01T03:51:13;97063.75;;;10.98;85.18
46007;BME280;31738;50.188;8.524;2023-04-01T03:53:39;97052.25;;;10.97;85.13
46007;BME280;31738;50.188;8.524;2023-04-01T03:56:06;97053.81;;;10.98;84.84
46007;BME280;31738;50.188;8.524;2023-04-01T03:58:35;97052.72;;;10.99;84.89
46007;BME280;31738;50.188;8.524;2023-04-01T04:01:02;97045.78;;;10.98;84.78
46007;BME280;31738;50.188;8.524;2023-04-01T04:03:28;97050.34;;;10.98;84.91
46007;BME280;31738;50.188;8.524;2023-04-01T04:05:53;97048.47;;;10.98;85.09
46007;BME280;31738;50.188;8.524;2023-04-01T04:08:21;97051.16;;;10.98;84.80
46007;BME280;31738;50.188;8.524;2023-04-01T04:10:47;97049.56;;;10.97;84.95
46007;BME280;31738;50.188;8.524;2023-04-01T04:13:13;97050.34;;;10.98;85.19
46007;BME280;31738;50.188;8.524;2023-04-01T04:15:46;97049.56;;;10.97;85.13
46007;BME280;31738;50.188;8.524;2023-04-01T04:18:11;97046.09;;;10.97;85.00
46007;BME280;31738;50.188;8.524;2023-04-01T04:20:44;97052.72;;;10.99;84.80
46007;BME280;31738;50.188;8.524;2023-04-01T04:23:11;97052.25;;;10.97;85.19
46007;BME280;31738;50.188;8.524;2023-04-01T04:25:36;97053.34;;;10.96;84.79
46007;BME280;31738;50.188;8.524;2023-04-01T04:28:02;97058.25;;;10.94;85.35
46007;BME280;31738;50.188;8.524;2023-04-01T04:30:27;97045.94;;;10.93;85.48
46007;BME280;31738;50.188;8.524;2023-04-01T04:32:53;97050.03;;;10.91;85.77
46007;BME280;31738;50.188;8.524;2023-04-01T04:35:18;97039.63;;;10.89;85.98
46007;BME280;31738;50.188;8.524;2023-04-01T04:37:44;97041.06;;;10.87;86.22
46007;BME280;31738;50.188;8.524;2023-04-01T04:40:10;97044.06;;;10.85;86.12
46007;BME280;31738;50.188;8.524;2023-04-01T04:42:36;97044.06;;;10.85;86.48
46007;BME280;31738;50.188;8.524;2023-04-01T04:45:08;97036.66;;;10.82;86.45
46007;BME280;31738;50.188;8.524;2023-04-01T04:47:35;97032.84;;;10.83;86.48
46007;BME280;31738;50.188;8.524;2023-04-01T04:50:00;97027.00;;;10.81;86.73
46007;BME280;31738;50.188;8.524;2023-04-01T04:52:26;97031.13;;;10.79;87.13
46007;BME280;31738;50.188;8.524;2023-04-01T04:54:51;97033.63;;;10.75;87.19
46007;BME280;31738;50.188;8.524;2023-04-01T04:57:17;97031.44;;;10.77;87.09
46007;BME280;31738;50.188;8.524;2023-04-01T04:59:50;97029.84;;;10.76;86.88
46007;BME280;31738;50.188;8.524;2023-04-01T05:02:23;97027.16;;;10.76;87.28
46007;BME280;31738;50.188;8.524;2023-04-01T05:04:49;97022.59;;;10.77;87.01
46007;BME280;31738;50.188;8.524;2023-04-01T05:07:14;97028.59;;;10.74;86.99
46007;BME280;31738;50.188;8.524;2023-04-01T05:09:40;97028.59;;;10.74;87.34
46007;BME280;31738;50.188;8.524;2023-04-01T05:12:05;97027.78;;;10.73;87.60
46007;BME280;31738;50.188;8.524;2023-04-01T05:15:07;97016.94;;;10.70;87.93
46007;BME280;31738;50.188;8.524;2023-04-01T05:17:33;97029.53;;;10.69;87.98
46007;BME280;31738;50.188;8.524;2023-04-01T05:19:59;97018.50;;;10.71;88.16
46007;BME280;31738;50.188;8.524;2023-04-01T05:22:25;97019.28;;;10.71;88.19
46007;BME280;31738;50.188;8.524;2023-04-01T05:24:51;97019.94;;;10.68;88.40
46007;BME280;31738;50.188;8.524;2023-04-01T05:27:17;97020.69;;;10.69;88.26
46007;BME280;31738;50.188;8.524;2023-04-01T05:29:43;97010.78;;;10.69;88.43
46007;BME280;31738;50.188;8.524;2023-04-01T05:32:24;97021.31;;;10.66;88.63
46007;BME280;31738;50.188;8.524;2023-04-01T05:34:51;97002.88;;;10.64;88.59
46007;BME280;31738;50.188;8.524;2023-04-01T05:37:16;97013.59;;;10.64;88.83
46007;BME280;31738;50.188;8.524;2023-04-01T05:39:42;97013.59;;;10.64;88.63
46007;BME280;31738;50.188;8.524;2023-04-01T05:42:08;97010.91;;;10.64;88.87
46007;BME280;31738;50.188;8.524;2023-04-01T05:44:34;97005.56;;;10.64;88.96
46007;BME280;31738;50.188;8.524;2023-04-01T05:47:05;97008.25;;;10.64;88.78
46007;BME280;31738;50.188;8.524;2023-04-01T05:49:33;97002.88;;;10.64;88.72
46007;BME280;31738;50.188;8.524;2023-04-01T05:51:59;97004.00;;;10.63;89.01
46007;BME280;31738;50.188;8.524;2023-04-01T05:54:25;97006.34;;;10.65;89.01
46007;BME280;31738;50.188;8.524;2023-04-01T05:56:50;96998.63;;;10.63;89.36
46007;BME280;31738;50.188;8.524;2023-04-01T05:59:17;97005.09;;;10.62;89.43
46007;BME280;31738;50.188;8.524;2023-04-01T06:01:43;97003.50;;;10.61;89.48
46007;BME280;31738;50.188;8.524;2023-04-01T06:04:16;96998.16;;;10.61;89.20
46007;BME280;31738;50.188;8.524;2023-04-01T06:06:43;96999.25;;;10.60;89.59
46007;BME280;31738;50.188;8.524;2023-04-01T06:09:17;97002.75;;;10.61;89.54
46007;BME280;31738;50.188;8.524;2023-04-01T06:12:29;96996.59;;;10.60;89.32
46007;BME280;31738;50.188;8.524;2023-04-01T06:15:13;97004.78;;;10.55;89.69
46007;BME280;31738;50.188;8.524;2023-04-01T06:20:47;97001.78;;;10.57;89.53
46007;BME280;31738;50.188;8.524;2023-04-01T06:23:36;97003.69;;;10.56;89.59
46007;BME280;31738;50.188;8.524;2023-04-01T06:26:29;97001.00;;;10.56;90.03
46007;BME280;31738;50.188;8.524;2023-04-01T06:31:57;97001.78;;;10.57;89.96
46007;BME280;31738;50.188;8.524;2023-04-01T06:38:05;96999.25;;;10.60;89.77
46007;BME280;31738;50.188;8.524;2023-04-01T06:49:16;97006.19;;;10.61;90.10
46007;BME280;31738;50.188;8.524;2023-04-01T06:52:21;97004.94;;;10.59;90.14
46007;BME280;31738;50.188;8.524;2023-04-01T06:55:19;97003.50;;;10.61;90.36
46007;BME280;31738;50.188;8.524;2023-04-01T06:58:21;97001.94;;;10.60;90.19
46007;BME280;31738;50.188;8.524;2023-04-01T07:00:52;97000.81;;;10.61;90.43
46007;BME280;31738;50.188;8.524;2023-04-01T07:03:43;97009.34;;;10.63;90.47
46007;BME280;31738;50.188;8.524;2023-04-01T07:06:16;97011.88;;;10.60;90.65
46007;BME280;31738;50.188;8.524;2023-04-01T07:08:53;97014.22;;;10.61;90.60
46007;BME280;31738;50.188;8.524;2023-04-01T07:11:27;97008.25;;;10.64;90.81
46007;BME280;31738;50.188;8.524;2023-04-01T07:14:23;97005.88;;;10.63;90.56
46007;BME280;31738;50.188;8.524;2023-04-01T07:17:08;97009.03;;;10.65;90.73
46007;BME280;31738;50.188;8.524;2023-04-01T07:19:48;97006.03;;;10.66;90.62
46007;BME280;31738;50.188;8.524;2023-04-01T07:25:05;97009.19;;;10.68;90.82
46007;BME280;31738;50.188;8.524;2023-04-01T07:27:31;97003.22;;;10.71;90.96
46007;BME280;31738;50.188;8.524;2023-04-01T07:29:57;97011.06;;;10.76;90.90
46007;BME280;31738;50.188;8.524;2023-04-01T07:32:28;97008.22;;;10.81;90.74
46007;BME280;31738;50.188;8.524;2023-04-01T07:43:06;97012.94;;;11.01;91.10
46007;BME280;31738;50.188;8.524;2023-04-01T07:46:03;97015.97;;;11.08;90.95
46007;BME280;31738;50.188;8.524;2023-04-01T07:48:45;97012.63;;;11.11;91.02
46007;BME280;31738;50.188;8.524;2023-04-01T07:51:21;97024.28;;;11.15;90.89
46007;BME280;31738;50.188;8.524;2023-04-01T07:56:19;97029.38;;;11.08;91.11
46007;BME280;31738;50.188;8.524;2023-04-01T08:04:51;97022.53;;;11.28;91.01
46007;BME280;31738;50.188;8.524;2023-04-01T08:10:52;97032.63;;;11.31;91.39
46007;BME280;31738;50.188;8.524;2023-04-01T08:17:31;97037.53;;;11.37;90.97
46007;BME280;31738;50.188;8.524;2023-04-01T08:20:14;97038.13;;;11.34;91.02
46007;BME280;31738;50.188;8.524;2023-04-01T08:22:50;97041.28;;;11.36;91.49
46007;BME280;31738;50.188;8.524;2023-04-01T08:25:26;97046.03;;;11.39;91.53
46007;BME280;31738;50.188;8.524;2023-04-01T08:28:24;97038.72;;;11.48;91.29
46007;BME280;31738;50.188;8.524;2023-04-01T08:31:01;97040.66;;;11.48;91.14
46007;BME280;31738;50.188;8.524;2023-04-01T08:33:31;97046.63;;;11.53;91.36
46007;BME280;31738;50.188;8.524;2023-04-01T08:36:08;97037.59;;;11.58;91.40
46007;BME280;31738;50.188;8.524;2023-04-01T08:38:55;97037.63;;;11.66;91.22
46007;BME280;31738;50.188;8.524;2023-04-01T08:55:38;97043.84;;;11.87;91.71
46007;BME280;31738;50.188;8.524;2023-04-01T09:01:50;97040.53;;;11.90;91.62
46007;BME280;31738;50.188;8.524;2023-04-01T09:10:40;97048.59;;;11.90;91.11
46007;BME280;31738;50.188;8.524;2023-04-01T09:16:58;97055.91;;;11.81;91.54
46007;BME280;31738;50.188;8.524;2023-04-01T09:19:55;97061.91;;;11.78;91.63
46007;BME280;31738;50.188;8.524;2023-04-01T09:25:13;97058.59;;;11.73;91.52
46007;BME280;31738;50.188;8.524;2023-04-01T09:27:52;97060.00;;;11.79;91.63
46007;BME280;31738;50.188;8.524;2023-04-01T09:30:55;97056.50;;;11.87;91.76
46007;BME280;31738;50.188;8.524;2023-04-01T09:36:47;97056.66;;;11.90;91.74
46007;BME280;31738;50.188;8.524;2023-04-01T09:39:33;97064.53;;;11.95;91.74
46007;BME280;31738;50.188;8.524;2023-04-01T09:45:05;97059.44;;;12.02;91.45
46007;BME280;31738;50.188;8.524;2023-04-01T09:50:35;97072.22;;;12.05;91.49
46007;BME280;31738;50.188;8.524;2023-04-01T09:53:32;97072.53;;;12.04;91.66
46007;BME280;31738;50.188;8.524;2023-04-01T10:05:08;97084.34;;;12.12;91.78
46007;BME280;31738;50.188;8.524;2023-04-01T10:08:09;97084.34;;;12.12;91.48
46007;BME280;31738;50.188;8.524;2023-04-01T10:11:04;97085.94;;;12.13;91.70
46007;BME280;31738;50.188;8.524;2023-04-01T10:19:39;97081.50;;;12.17;91.84
46007;BME280;31738;50.188;8.524;2023-04-01T10:36:52;97081.41;;;12.34;92.38
46007;BME280;31738;50.188;8.524;2023-04-01T10:51:21;97081.22;;;12.39;92.17
46007;BME280;31738;50.188;8.524;2023-04-01T11:18:53;97086.84;;;12.75;92.32
46007;BME280;31738;50.188;8.524;2023-04-01T11:25:39;97095.16;;;12.82;91.86
46007;BME280;31738;50.188;8.524;2023-04-01T11:33:37;97103.66;;;12.72;91.83
46007;BME280;31738;50.188;8.524;2023-04-01T11:36:26;97102.34;;;12.78;91.54
46007;BME280;31738;50.188;8.524;2023-04-01T11:45:39;97101.03;;;12.84;91.95
46007;BME280;31738;50.188;8.524;2023-04-01T11:57:07;97124.03;;;13.02;91.91
46007;BME280;31738;50.188;8.524;2023-04-01T11:59:44;97120.50;;;13.10;91.89
46007;BME280;31738;50.188;8.524;2023-04-01T12:14:20;97134.44;;;13.77;91.38
46007;BME280;31738;50.188;8.524;2023-04-01T12:16:59;97137.19;;;13.89;91.30
46007;BME280;31738;50.188;8.524;2023-04-01T12:19:36;97143.50;;;13.93;90.95
46007;BME280;31738;50.188;8.524;2023-04-01T12:25:38;97141.50;;;14.02;90.85
46007;BME280;31738;50.188;8.524;2023-04-01T12:28:25;97146.63;;;13.95;90.82
46007;BME280;31738;50.188;8.524;2023-04-01T12:31:19;97152.69;;;13.92;90.47
46007;BME280;31738;50.188;8.524;2023-04-01T12:33:57;97153.91;;;13.83;90.44
46007;BME280;31738;50.188;8.524;2023-04-01T12:41:51;97154.69;;;13.83;90.25
46007;BME280;31738;50.188;8.524;2023-04-01T12:44:41;97159.16;;;13.79;90.50
46007;BME280;31738;50.188;8.524;2023-04-01T12:55:35;97170.25;;;13.65;90.19
46007;BME280;31738;50.188;8.524;2023-04-01T13:03:53;97168.78;;;13.68;90.54
46007;BME280;31738;50.188;8.524;2023-04-01T13:06:45;97175.41;;;13.70;90.60
46007;BME280;31738;50.188;8.524;2023-04-01T13:09:28;97167.06;;;13.84;91.16
46007;BME280;31738;50.188;8.524;2023-04-01T13:20:44;97176.16;;;14.24;90.30
46007;BME280;31738;50.188;8.524;2023-04-01T13:26:27;97171.91;;;14.35;90.26
46007;BME280;31738;50.188;8.524;2023-04-01T13:29:04;97187.88;;;14.40;90.41
46007;BME280;31738;50.188;8.524;2023-04-01T13:31:36;97173.03;;;14.46;89.94
46007;BME280;31738;50.188;8.524;2023-04-01T13:34:48;97179.91;;;14.56;89.38
46007;BME280;31738;50.188;8.524;2023-04-01T13:37:59;97184.97;;;14.57;89.54
46007;BME280;31738;50.188;8.524;2023-04-01T13:43:26;97180.59;;;14.65;88.95
46007;BME280;31738;50.188;8.524;2023-04-01T13:46:09;97187.44;;;14.62;89.11
46007;BME280;31738;50.188;8.524;2023-04-01T13:54:49;97194.06;;;14.65;89.12
46007;BME280;31738;50.188;8.524;2023-04-01T14:05:47;97201.16;;;14.57;89.39
46007;BME280;31738;50.188;8.524;2023-04-01T14:11:37;97209.25;;;14.45;89.27
46007;BME280;31738;50.188;8.524;2023-04-01T14:16:54;97215.16;;;14.27;89.25
46007;BME280;31738;50.188;8.524;2023-04-01T14:19:46;97215.50;;;14.25;89.36
46007;BME280;31738;50.188;8.524;2023-04-01T14:22:36;97211.06;;;14.21;89.76
46007;BME280;31738;50.188;8.524;2023-04-01T14:26:09;97210.75;;;14.22;89.43
46007;BME280;31738;50.188;8.524;2023-04-01T14:45:40;97213.91;;;14.24;89.70
46007;BME280;31738;50.188;8.524;2023-04-01T14:48:30;97220.22;;;14.28;89.63
46007;BME280;31738;50.188;8.524;2023-04-01T14:51:03;97218.03;;;14.22;89.77
46007;BME280;31738;50.188;8.524;2023-04-01T14:53:37;97218.22;;;14.17;89.92
46007;BME280;31738;50.188;8.524;2023-04-01T14:56:04;97228.91;;;14.13;89.80
46007;BME280;31738;50.188;8.524;2023-04-01T14:58:47;97240.16;;;14.15;89.68
46007;BME280;31738;50.188;8.524;2023-04-01T15:12:50;97227.53;;;14.40;89.18
46007;BME280;31738;50.188;8.524;2023-04-01T15:21:13;97245.59;;;14.27;89.04
46007;BME280;31738;50.188;8.524;2023-04-01T15:32:15;97257.97;;;14.08;89.27
46007;BME280;31738;50.188;8.524;2023-04-01T15:46:30;97281.41;;;13.95;89.35
46007;BME280;31738;50.188;8.524;2023-04-01T15:57:31;97299.69;;;13.90;89.56
46007;BME280;31738;50.188;8.524;2023-04-01T16:00:19;97294.09;;;13.95;89.03
46007;BME280;31738;50.188;8.524;2023-04-01T16:03:02;97291.53;;;13.98;89.37
46007;BME280;31738;50.188;8.524;2023-04-01T16:05:42;97299.16;;;13.96;89.00
46007;BME280;31738;50.188;8.524;2023-04-01T16:13:59;97296.66;;;13.70;89.18
46007;BME280;31738;50.188;8.524;2023-04-01T16:22:13;97307.66;;;13.65;89.31
46007;BME280;31738;50.188;8.524;2023-04-01T16:24:48;97303.25;;;13.61;89.34
46007;BME280;31738;50.188;8.524;2023-04-01T16:30:01;97311.41;;;13.73;89.13
46007;BME280;31738;50.188;8.524;2023-04-01T16:38:07;97328.88;;;13.67;88.43
46007;BME280;31738;50.188;8.524;2023-04-01T16:40:44;97343.00;;;13.64;88.51
46007;BME280;31738;50.188;8.524;2023-04-01T16:43:41;97337.63;;;13.64;88.50
46007;BME280;31738;50.188;8.524;2023-04-01T16:49:05;97347.66;;;13.55;88.36
46007;BME280;31738;50.188;8.524;2023-04-01T16:54:23;97360.97;;;13.51;88.19
46007;BME280;31738;50.188;8.524;2023-04-01T16:59:53;97364.81;;;13.42;88.57
46007;BME280;31738;50.188;8.524;2023-04-01T17:02:24;97366.28;;;13.39;88.88
46007;BME280;31738;50.188;8.524;2023-04-01T17:05:11;97372.91;;;13.42;88.70
46007;BME280;31738;50.188;8.524;2023-04-01T17:10:30;97377.38;;;13.38;88.91
46007;BME280;31738;50.188;8.524;2023-04-01T17:15:46;97389.44;;;13.32;88.92
46007;BME280;31738;50.188;8.524;2023-04-01T17:24:21;97397.88;;;13.22;88.70
46007;BME280;31738;50.188;8.524;2023-04-01T17:35:50;97413.16;;;13.01;88.54
46007;BME280;31738;50.188;8.524;2023-04-01T17:41:31;97429.47;;;12.87;88.33
46007;BME280;31738;50.188;8.524;2023-04-01T17:46:58;97434.19;;;12.82;88.31
46007;BME280;31738;50.188;8.524;2023-04-01T17:49:39;97438.31;;;12.79;88.40
46007;BME280;31738;50.188;8.524;2023-04-01T17:52:30;97448.94;;;12.76;88.46
46007;BME280;31738;50.188;8.524;2023-04-01T17:57:54;97450.69;;;12.72;88.74
46007;BME280;31738;50.188;8.524;2023-04-01T18:00:26;97454.31;;;12.67;88.92
46007;BME280;31738;50.188;8.524;2023-04-01T18:14:31;97470.44;;;12.59;89.11
46007;BME280;31738;50.188;8.524;2023-04-01T18:17:24;97469.53;;;12.55;88.78
46007;BME280;31738;50.188;8.524;2023-04-01T18:26:02;97494.03;;;12.45;88.79
46007;BME280;31738;50.188;8.524;2023-04-01T18:28:48;97511.59;;;12.42;88.84
46007;BME280;31738;50.188;8.524;2023-04-01T18:31:23;97510.31;;;12.40;89.31
46007;BME280;31738;50.188;8.524;2023-04-01T18:37:19;97517.59;;;12.31;89.18
46007;BME280;31738;50.188;8.524;2023-04-01T18:40:37;97521.53;;;12.25;89.41
46007;BME280;31738;50.188;8.524;2023-04-01T18:52:36;97546.97;;;12.19;89.65
46007;BME280;31738;50.188;8.524;2023-04-01T18:57:51;97559.31;;;12.20;89.86
46007;BME280;31738;50.188;8.524;2023-04-01T19:00:27;97562.63;;;12.17;89.99
46007;BME280;31738;50.188;8.524;2023-04-01T19:05:44;97567.38;;;12.20;90.28
46007;BME280;31738;50.188;8.524;2023-04-01T19:08:38;97568.31;;;12.24;90.41
46007;BME280;31738;50.188;8.524;2023-04-01T19:21:44;97581.41;;;12.08;90.65
46007;BME280;31738;50.188;8.524;2023-04-01T19:24:40;97582.06;;;12.14;90.66
46007;BME280;31738;50.188;8.524;2023-04-01T19:30:05;97592.19;;;12.17;90.88
46007;BME280;31738;50.188;8.524;2023-04-01T19:35:54;97592.63;;;12.10;91.03
46007;BME280;31738;50.188;8.524;2023-04-01T19:38:30;97589.63;;;12.12;90.93
46007;BME280;31738;50.188;8.524;2023-04-01T19:46:35;97584.88;;;12.08;91.25
46007;BME280;31738;50.188;8.524;2023-04-01T19:49:27;97603.25;;;12.15;91.07
46007;BME280;31738;50.188;8.524;2023-04-01T19:54:43;97603.38;;;12.10;91.28
46007;BME280;31738;50.188;8.524;2023-04-01T19:57:20;97610.81;;;12.13;91.37
46007;BME280;31738;50.188;8.524;2023-04-01T20:02:33;97607.97;;;12.09;90.98
46007;BME280;31738;50.188;8.524;2023-04-01T20:05:16;97617.13;;;12.08;91.25
46007;BME280;31738;50.188;8.524;2023-04-01T20:07:52;97624.69;;;12.06;91.27
46007;BME280;31738;50.188;8.524;2023-04-01T20:10:48;97629.47;;;12.09;91.29
46007;BME280;31738;50.188;8.524;2023-04-01T20:13:30;97630.06;;;12.06;90.89
46007;BME280;31738;50.188;8.524;2023-04-01T20:16:02;97642.44;;;12.07;91.38
46007;BME280;31738;50.188;8.524;2023-04-01T20:19:00;97644.50;;;12.11;91.31
46007;BME280;31738;50.188;8.524;2023-04-01T20:21:33;97646.19;;;12.06;91.11
46007;BME280;31738;50.188;8.524;2023-04-01T20:24:07;97647.81;;;12.07;91.51
46007;BME280;31738;50.188;8.524;2023-04-01T20:26:45;97647.81;;;12.07;91.45
46007;BME280;31738;50.188;8.524;2023-04-01T20:32:11;97660.75;;;12.05;91.69
46007;BME280;31738;50.188;8.524;2023-04-01T20:35:12;97657.56;;;12.03;91.79
46007;BME280;31738;50.188;8.524;2023-04-01T20:37:47;97667.38;;;11.99;92.13
46007;BME280;31738;50.188;8.524;2023-04-01T20:40:33;97661.38;;;12.02;91.74
46007;BME280;31738;50.188;8.524;2023-04-01T20:46:18;97666.56;;;11.99;92.04
46007;BME280;31738;50.188;8.524;2023-04-01T20:52:24;97665.78;;;11.98;91.89
46007;BME280;31738;50.188;8.524;2023-04-01T20:55:19;97664.81;;;11.94;92.10
46007;BME280;31738;50.188;8.524;2023-04-01T20:58:10;97669.72;;;11.92;91.93
46007;BME280;31738;50.188;8.524;2023-04-01T21:01:00;97675.41;;;11.91;92.20
46007;BME280;31738;50.188;8.524;2023-04-01T21:03:41;97673.78;;;11.90;92.02
46007;BME280;31738;50.188;8.524;2023-04-01T21:09:11;97676.78;;;11.88;92.03
46007;BME280;31738;50.188;8.524;2023-04-01T21:12:00;97685.97;;;11.87;91.97
46007;BME280;31738;50.188;8.524;2023-04-01T21:14:43;97683.56;;;11.86;92.00
46007;BME280;31738;50.188;8.524;2023-04-01T21:17:16;97696.50;;;11.84;92.23